Time;durP1;ratioP1;P1;durP2;ratioP2;P2;SDS_P1;SDS_P2;PMS_P1;PMS_P2;Temp;Humidity;BMP_temperature;BMP_pressure;BME280_temperature;BME280_humidity;BME280_pressure;Samples;Min_cycle;Max_cycle;Signal;HPM_P1;HPM_P2
2022/07/07 00:01:48;;;;;;;;;;;;;;;22.98;29.51;97595.97;5068144;28;858;-84
2022/07/07 00:04:13;;;;;;;;;;;;;;;22.83;29.62;97599.31;5068749;28;759;-84
2022/07/07 00:06:38;;;;;;;;;;;;;;;22.86;29.35;97600.44;5036402;28;835;-84
2022/07/07 00:09:04;;;;;;;;;;;;;;;22.94;29.46;97600.97;5036582;28;1910;-84
2022/07/07 00:11:29;;;;;;;;;;;;;;;22.84;29.59;97592.38;5036570;28;799;-84
2022/07/07 00:13:55;;;;;;;;;;;;;;;22.98;29.56;97599.59;5036883;28;835;-84
2022/07/07 00:16:20;;;;;;;;;;;;;;;22.92;29.69;97597.81;5074224;28;966;-84
2022/07/07 00:18:46;;;;;;;;;;;;;;;22.72;29.45;97598.91;5037741;28;1358;-84
2022/07/07 00:21:11;;;;;;;;;;;;;;;23.05;29.11;97587.97;5041144;28;824;-84
2022/07/07 00:23:37;;;;;;;;;;;;;;;23.06;29.06;97594.44;5041841;28;789;-84
2022/07/07 00:26:02;;;;;;;;;;;;;;;22.76;29.61;97588.25;5058095;28;963;-84
2022/07/07 00:28:28;;;;;;;;;;;;;;;22.91;29.46;97587.72;5057882;28;1914;-84
2022/07/07 00:30:53;;;;;;;;;;;;;;;22.81;29.39;97584.81;5057986;28;912;-84
2022/07/07 00:33:19;;;;;;;;;;;;;;;22.91;29.40;97576.38;5041399;28;1236;-84
2022/07/07 00:35:44;;;;;;;;;;;;;;;22.94;29.54;97586.78;5058197;28;825;-84
2022/07/07 00:38:09;;;;;;;;;;;;;;;22.85;29.34;97588.31;5041084;28;965;-84
2022/07/07 00:40:35;;;;;;;;;;;;;;;22.74;29.96;97579.41;5041280;28;1186;-83
2022/07/07 00:43:00;;;;;;;;;;;;;;;22.90;29.69;97586.13;5057780;28;818;-84
2022/07/07 00:45:26;;;;;;;;;;;;;;;22.93;29.57;97577.47;5057802;28;973;-84
2022/07/07 00:47:52;;;;;;;;;;;;;;;22.90;29.76;97580.44;5023591;28;1922;-84
2022/07/07 00:50:17;;;;;;;;;;;;;;;22.93;29.72;97573.84;5032601;28;853;-84
2022/07/07 00:52:42;;;;;;;;;;;;;;;22.97;29.76;97575.31;5021159;28;1299;-84
2022/07/07 00:55:08;;;;;;;;;;;;;;;22.92;29.73;97575.13;4998135;28;1253;-85
2022/07/07 00:57:33;;;;;;;;;;;;;;;22.94;29.74;97576.22;4983973;28;1326;-84
2022/07/07 01:03:33;;;;;;;;;;;;;;;22.86;29.95;97581.38;4978687;28;807;-85
2022/07/07 01:05:59;;;;;;;;;;;;;;;22.98;29.97;97584.59;4962634;28;840;-84
2022/07/07 01:08:24;;;;;;;;;;;;;;;22.77;30.25;97584.13;4978448;28;1993;-83
2022/07/07 01:10:50;;;;;;;;;;;;;;;22.94;30.35;97575.44;4962324;28;929;-84
2022/07/07 01:13:15;;;;;;;;;;;;;;;23.05;30.27;97575.81;4978381;28;1067;-84
2022/07/07 01:15:40;;;;;;;;;;;;;;;22.99;30.27;97572.00;4978675;28;1069;-84
2022/07/07 01:18:06;;;;;;;;;;;;;;;23.08;30.23;97563.53;4985828;28;1032;-84
2022/07/07 01:20:31;;;;;;;;;;;;;;;22.96;30.41;97567.28;5001049;28;838;-84
2022/07/07 01:22:57;;;;;;;;;;;;;;;23.06;30.52;97571.72;4997527;28;874;-84
2022/07/07 01:28:59;;;;;;;;;;;;;;;22.90;30.77;97563.44;5004043;28;1974;-83
2022/07/07 01:31:24;;;;;;;;;;;;;;;22.99;30.22;97569.16;5016602;28;799;-84
2022/07/07 01:33:50;;;;;;;;;;;;;;;22.96;30.43;97575.78;5071417;28;822;-84
2022/07/07 01:39:50;;;;;;;;;;;;;;;22.79;30.75;97581.63;5056719;28;798;-84
2022/07/07 01:42:15;;;;;;;;;;;;;;;22.86;30.87;97578.53;5056773;28;1200;-84
2022/07/07 01:44:41;;;;;;;;;;;;;;;22.99;30.67;97583.34;5056519;28;1065;-84
2022/07/07 01:47:07;;;;;;;;;;;;;;;23.10;30.61;97589.38;5056220;28;1910;-84
2022/07/07 01:49:33;;;;;;;;;;;;;;;22.96;30.49;97589.97;5036418;28;958;-84
2022/07/07 01:51:58;;;;;;;;;;;;;;;22.75;31.05;97591.53;5000351;28;1273;-84
2022/07/07 01:54:24;;;;;;;;;;;;;;;23.08;30.31;97591.91;4996819;28;976;-83
2022/07/07 01:56:49;;;;;;;;;;;;;;;22.90;30.70;97591.78;4980736;28;883;-84
2022/07/07 01:59:15;;;;;;;;;;;;;;;22.85;30.81;97591.13;4980928;28;1255;-84
2022/07/07 02:01:40;;;;;;;;;;;;;;;22.90;30.73;97598.28;4980809;28;996;-84
2022/07/07 02:04:05;;;;;;;;;;;;;;;22.88;30.78;97601.56;4981001;28;865;-84
2022/07/07 02:06:32;;;;;;;;;;;;;;;22.97;30.76;97598.00;4989480;28;1252;-84
2022/07/07 02:08:58;;;;;;;;;;;;;;;23.01;30.50;97595.03;4977000;28;1902;-84
2022/07/07 02:11:23;;;;;;;;;;;;;;;23.17;30.41;97589.13;4961052;28;994;-84
2022/07/07 02:13:49;;;;;;;;;;;;;;;23.14;30.07;97587.22;4963146;28;835;-84
2022/07/07 02:16:15;;;;;;;;;;;;;;;22.91;30.36;97593.41;4958277;29;804;-85
2022/07/07 02:18:41;;;;;;;;;;;;;;;22.93;30.57;97588.03;4957918;29;961;-84
2022/07/07 02:21:07;;;;;;;;;;;;;;;23.06;30.25;97594.44;4944000;29;894;-84
2022/07/07 02:23:33;;;;;;;;;;;;;;;23.07;30.17;97596.00;4952912;29;1076;-84
2022/07/07 02:25:58;;;;;;;;;;;;;;;23.09;29.97;97599.94;5019544;28;848;-84
2022/07/07 02:28:24;;;;;;;;;;;;;;;23.03;30.22;97607.50;5001561;28;1976;-85
2022/07/07 02:30:53;;;;;;;;;;;;;;;22.79;30.56;97598.63;5055810;28;1025;-85
2022/07/07 02:33:18;;;;;;;;;;;;;;;22.94;30.43;97595.28;5055791;28;755;-84
2022/07/07 02:35:44;;;;;;;;;;;;;;;23.12;30.24;97586.91;5072487;28;810;-85
2022/07/07 02:38:09;;;;;;;;;;;;;;;23.04;30.09;97596.94;5055961;28;827;-85
2022/07/07 02:40:35;;;;;;;;;;;;;;;23.08;30.22;97600.44;5041844;28;931;-84
2022/07/07 02:43:00;;;;;;;;;;;;;;;22.99;30.62;97595.47;5069704;28;805;-84
2022/07/07 02:45:26;;;;;;;;;;;;;;;23.04;30.45;97596.94;5037956;28;763;-85
2022/07/07 02:51:26;;;;;;;;;;;;;;;22.92;31.04;97590.09;5037519;28;826;-84
2022/07/07 02:53:52;;;;;;;;;;;;;;;22.99;30.65;97589.03;5069927;28;743;-84
2022/07/07 02:56:18;;;;;;;;;;;;;;;23.08;30.53;97586.25;5053281;28;794;-84
2022/07/07 02:58:43;;;;;;;;;;;;;;;23.07;30.70;97607.38;5037649;28;747;-84
2022/07/07 03:01:09;;;;;;;;;;;;;;;23.16;30.22;97598.91;5070343;28;768;-84
2022/07/07 03:03:34;;;;;;;;;;;;;;;22.95;30.68;97599.72;5069412;28;845;-84
2022/07/07 03:09:35;;;;;;;;;;;;;;;23.15;30.60;97597.31;5037597;28;633;-84
2022/07/07 03:12:00;;;;;;;;;;;;;;;23.08;30.51;97601.22;5036607;28;759;-84
2022/07/07 03:14:26;;;;;;;;;;;;;;;23.02;30.73;97599.44;5036878;28;704;-84
2022/07/07 03:16:51;;;;;;;;;;;;;;;23.03;30.40;97612.38;5037483;28;736;-84
2022/07/07 03:19:17;;;;;;;;;;;;;;;23.13;30.62;97611.19;5036693;28;740;-85
2022/07/07 03:21:42;;;;;;;;;;;;;;;23.08;30.40;97614.63;5036982;28;847;-84
2022/07/07 03:24:08;;;;;;;;;;;;;;;23.20;30.37;97622.25;5069042;28;782;-84
2022/07/07 03:26:33;;;;;;;;;;;;;;;23.09;30.64;97616.19;5068792;28;759;-84
2022/07/07 03:28:58;;;;;;;;;;;;;;;23.00;30.75;97616.13;5054045;28;1979;-84
2022/07/07 03:31:24;;;;;;;;;;;;;;;23.14;30.47;97612.75;5055348;28;806;-84
2022/07/07 03:33:49;;;;;;;;;;;;;;;23.15;30.53;97608.66;5054703;28;905;-85
2022/07/07 03:36:15;;;;;;;;;;;;;;;23.02;30.68;97607.97;5034856;28;885;-84
2022/07/07 03:38:40;;;;;;;;;;;;;;;23.13;30.37;97611.19;5014039;28;918;-84
2022/07/07 03:41:06;;;;;;;;;;;;;;;23.06;30.27;97611.47;4998201;28;981;-83
2022/07/07 03:43:31;;;;;;;;;;;;;;;23.20;30.42;97619.41;5014665;28;882;-83
2022/07/07 03:45:56;;;;;;;;;;;;;;;23.04;30.84;97622.47;4975506;28;952;-83
2022/07/07 03:48:22;;;;;;;;;;;;;;;23.05;30.85;97621.22;4975730;28;1985;-84
2022/07/07 03:50:47;;;;;;;;;;;;;;;23.10;30.75;97629.13;4975937;28;1067;-85
2022/07/07 03:53:13;;;;;;;;;;;;;;;23.32;30.35;97637.63;4975618;28;1056;-84
2022/07/07 03:55:38;;;;;;;;;;;;;;;23.06;30.77;97634.16;4975175;28;965;-84
2022/07/07 03:58:04;;;;;;;;;;;;;;;23.02;30.59;97650.53;4976166;28;991;-85
2022/07/07 04:00:29;;;;;;;;;;;;;;;22.85;30.74;97642.19;4975802;28;872;-85
2022/07/07 04:02:55;;;;;;;;;;;;;;;23.14;30.13;97641.91;4975537;28;956;-85
2022/07/07 04:05:20;;;;;;;;;;;;;;;23.04;30.53;97640.28;5011411;28;1310;-84
2022/07/07 04:07:46;;;;;;;;;;;;;;;22.98;30.44;97644.19;4997005;28;1991;-84
2022/07/07 04:10:11;;;;;;;;;;;;;;;22.99;30.48;97645.78;5048703;28;785;-85
2022/07/07 04:12:37;;;;;;;;;;;;;;;23.05;30.30;97649.59;4995097;28;1171;-84
2022/07/07 04:15:03;;;;;;;;;;;;;;;22.91;30.98;97650.94;4994834;28;879;-85
2022/07/07 04:17:28;;;;;;;;;;;;;;;23.11;30.71;97647.75;4994651;28;1107;-84
2022/07/07 04:19:54;;;;;;;;;;;;;;;22.99;30.69;97651.44;4978475;28;1136;-84
2022/07/07 04:22:19;;;;;;;;;;;;;;;23.11;30.46;97656.25;4995589;28;850;-85
2022/07/07 04:28:19;;;;;;;;;;;;;;;23.14;30.50;97658.94;4992123;28;1965;-84
2022/07/07 04:30:44;;;;;;;;;;;;;;;23.03;30.93;97666.28;4975377;28;950;-84
2022/07/07 04:33:10;;;;;;;;;;;;;;;22.95;31.01;97660.09;4955800;29;916;-85
2022/07/07 04:35:35;;;;;;;;;;;;;;;22.95;30.92;97662.94;4939636;29;884;-84
2022/07/07 04:38:01;;;;;;;;;;;;;;;23.02;30.91;97664.72;4955928;29;842;-85
2022/07/07 04:40:26;;;;;;;;;;;;;;;22.97;30.69;97670.97;4948581;29;787;-85
2022/07/07 04:42:52;;;;;;;;;;;;;;;23.16;30.35;97660.53;4913134;29;892;-84
2022/07/07 04:45:17;;;;;;;;;;;;;;;23.10;30.38;97663.19;4880201;29;1239;-85
2022/07/07 04:47:43;;;;;;;;;;;;;;;23.06;30.89;97651.97;4895885;29;1907;-84
2022/07/07 04:50:09;;;;;;;;;;;;;;;22.99;30.67;97657.13;4900168;29;970;-85
2022/07/07 04:52:34;;;;;;;;;;;;;;;22.99;30.68;97657.13;4918148;29;963;-84
2022/07/07 04:54:59;;;;;;;;;;;;;;;23.13;30.51;97657.38;4965758;28;914;-84
2022/07/07 04:57:25;;;;;;;;;;;;;;;23.14;30.46;97663.84;4975176;28;987;-83
2022/07/07 04:59:50;;;;;;;;;;;;;;;22.99;30.70;97655.06;4975023;28;946;-84
2022/07/07 05:02:16;;;;;;;;;;;;;;;23.01;30.56;97652.56;4988878;28;983;-84
2022/07/07 05:04:41;;;;;;;;;;;;;;;23.13;30.43;97651.69;5022785;28;844;-85
2022/07/07 05:07:07;;;;;;;;;;;;;;;22.96;30.86;97653.19;5034996;28;1887;-85
2022/07/07 05:09:34;;;;;;;;;;;;;;;23.17;30.68;97654.41;5037286;28;883;-84
2022/07/07 05:12:00;;;;;;;;;;;;;;;23.01;30.78;97648.94;5037815;28;947;-85
2022/07/07 05:14:25;;;;;;;;;;;;;;;22.99;30.73;97651.44;5037245;28;1100;-83
2022/07/07 05:16:51;;;;;;;;;;;;;;;23.02;30.74;97645.66;5033883;28;1387;-84
2022/07/07 05:19:17;;;;;;;;;;;;;;;23.14;30.64;97652.47;5042621;28;1266;-84
2022/07/07 05:21:43;;;;;;;;;;;;;;;23.19;30.18;97654.72;5049139;28;1310;-84
2022/07/07 05:24:08;;;;;;;;;;;;;;;23.06;30.47;97654.03;5016952;28;1250;-84
2022/07/07 05:26:34;;;;;;;;;;;;;;;23.13;30.25;97656.59;4951043;28;1354;-84
2022/07/07 05:29:00;;;;;;;;;;;;;;;23.09;30.56;97655.91;4948213;29;1981;-84
2022/07/07 05:31:25;;;;;;;;;;;;;;;23.12;30.27;97649.34;4957335;29;1231;-85
2022/07/07 05:33:51;;;;;;;;;;;;;;;23.16;30.36;97650.00;4945088;29;1346;-84
2022/07/07 05:36:16;;;;;;;;;;;;;;;23.24;30.01;97656.97;4951189;29;1243;-84
2022/07/07 05:38:43;;;;;;;;;;;;;;;23.04;30.11;97659.34;4966111;28;1447;-85
2022/07/07 05:41:39;;;;;;;;;;;;;;;23.06;30.30;97662.53;4958845;29;860;-84
2022/07/07 05:44:05;;;;;;;;;;;;;;;23.21;29.93;97663.59;4958342;29;807;-85
2022/07/07 05:46:30;;;;;;;;;;;;;;;23.19;29.98;97660.41;4977290;28;886;-84
2022/07/07 05:48:56;;;;;;;;;;;;;;;23.20;29.68;97673.31;4977483;28;1906;-83
2022/07/07 05:51:21;;;;;;;;;;;;;;;23.17;29.71;97673.47;4977479;28;911;-84
2022/07/07 05:53:47;;;;;;;;;;;;;;;23.14;29.85;97678.03;4961248;28;843;-84
2022/07/07 05:56:12;;;;;;;;;;;;;;;23.17;29.97;97673.47;4977040;28;888;-84
2022/07/07 05:58:38;;;;;;;;;;;;;;;23.12;30.01;97677.72;4959067;28;979;-84
2022/07/07 06:01:03;;;;;;;;;;;;;;;23.21;29.92;97680.63;4919547;29;962;-84
2022/07/07 06:03:29;;;;;;;;;;;;;;;23.04;30.24;97687.72;4919882;29;844;-84
2022/07/07 06:05:54;;;;;;;;;;;;;;;22.95;30.31;97684.81;4919646;29;998;-85
2022/07/07 06:08:19;;;;;;;;;;;;;;;23.00;30.43;97701.25;4919739;29;1910;-85
2022/07/07 06:10:45;;;;;;;;;;;;;;;22.90;30.04;97699.59;4883355;29;878;-84
2022/07/07 06:13:10;;;;;;;;;;;;;;;23.07;29.70;97704.63;4882111;29;908;-84
2022/07/07 06:15:36;;;;;;;;;;;;;;;22.97;30.17;97710.72;4882441;29;1223;-85
2022/07/07 06:18:05;;;;;;;;;;;;;;;23.05;30.13;97714.84;4894969;29;993;-84
2022/07/07 06:20:30;;;;;;;;;;;;;;;23.11;29.78;97713.81;4900592;29;921;-85
2022/07/07 06:23:19;;;;;;;;;;;;;;;23.21;29.67;97720.34;4900799;29;856;-84
2022/07/07 06:26:05;;;;;;;;;;;;;;;23.17;29.60;97702.66;4900349;29;993;-84
2022/07/07 06:28:38;;;;;;;;;;;;;;;23.01;29.75;97711.38;4884966;29;2005;-84
2022/07/07 06:31:04;;;;;;;;;;;;;;;23.02;29.66;97712.97;4904268;29;876;-84
2022/07/07 06:33:30;;;;;;;;;;;;;;;23.01;29.67;97717.06;4930145;29;831;-83
2022/07/07 06:35:55;;;;;;;;;;;;;;;23.15;29.90;97722.19;4919162;29;964;-84
2022/07/07 06:38:20;;;;;;;;;;;;;;;23.08;29.93;97719.63;4919053;29;780;-83
2022/07/07 06:40:46;;;;;;;;;;;;;;;23.17;29.66;97719.69;4919290;29;882;-85
2022/07/07 06:43:11;;;;;;;;;;;;;;;23.12;29.61;97723.13;4918992;29;816;-84
2022/07/07 06:45:37;;;;;;;;;;;;;;;23.25;29.59;97725.88;4917380;29;1077;-85
2022/07/07 06:48:04;;;;;;;;;;;;;;;23.25;29.37;97732.34;4899861;29;1914;-84
2022/07/07 06:50:29;;;;;;;;;;;;;;;23.14;29.74;97731.94;4901800;29;876;-84
2022/07/07 06:52:55;;;;;;;;;;;;;;;23.19;29.48;97734.19;4919374;29;791;-84
2022/07/07 06:55:20;;;;;;;;;;;;;;;23.11;29.55;97733.69;4946467;29;1227;-84
2022/07/07 06:57:46;;;;;;;;;;;;;;;23.05;29.47;97734.72;4989782;28;1453;-85
2022/07/07 07:00:12;;;;;;;;;;;;;;;23.00;29.62;97740.97;5015471;28;802;-84
2022/07/07 07:02:41;;;;;;;;;;;;;;;22.93;30.03;97738.41;5015444;28;973;-84
2022/07/07 07:05:07;;;;;;;;;;;;;;;23.12;29.34;97740.94;5015475;28;980;-84
2022/07/07 07:07:32;;;;;;;;;;;;;;;23.12;29.33;97740.16;5001965;28;2013;-84
2022/07/07 07:09:59;;;;;;;;;;;;;;;23.16;29.69;97732.31;5015321;28;960;-85
2022/07/07 07:16:21;;;;;;;;;;;;;;;23.08;29.39;97733.81;5015249;28;820;-84
2022/07/07 07:18:46;;;;;;;;;;;;;;;23.17;29.29;97735.94;4995715;28;1096;-85
2022/07/07 07:21:12;;;;;;;;;;;;;;;23.23;29.15;97739.75;4976302;28;1326;-84
2022/07/07 07:23:37;;;;;;;;;;;;;;;23.07;29.63;97737.91;4918506;29;932;-84
2022/07/07 07:26:03;;;;;;;;;;;;;;;23.09;29.56;97746.72;4926152;29;1263;-84
2022/07/07 07:28:29;;;;;;;;;;;;;;;23.13;29.18;97741.72;4921377;29;2031;-84
2022/07/07 07:30:54;;;;;;;;;;;;;;;23.01;29.28;97739.75;4937191;29;883;-85
2022/07/07 07:33:20;;;;;;;;;;;;;;;23.07;29.34;97738.69;4937104;29;967;-84
2022/07/07 07:35:45;;;;;;;;;;;;;;;23.08;29.39;97734.59;4937673;29;955;-84
2022/07/07 07:38:11;;;;;;;;;;;;;;;22.95;29.51;97736.72;4918501;29;1211;-84
2022/07/07 07:40:38;;;;;;;;;;;;;;;23.11;28.85;97747.09;4918193;29;815;-84
2022/07/07 07:43:03;;;;;;;;;;;;;;;23.13;28.98;97730.38;4918165;29;883;-84
2022/07/07 07:45:28;;;;;;;;;;;;;;;23.09;28.90;97735.38;4918032;29;948;-84
2022/07/07 07:47:54;;;;;;;;;;;;;;;22.91;29.39;97735.25;4918039;29;1911;-84
2022/07/07 07:50:21;;;;;;;;;;;;;;;23.03;29.09;97737.22;4860814;29;1038;-85
2022/07/07 07:52:47;;;;;;;;;;;;;;;23.11;29.38;97738.56;4875730;29;897;-84
2022/07/07 07:55:13;;;;;;;;;;;;;;;23.04;29.55;97735.97;4923068;29;1188;-84
2022/07/07 07:57:40;;;;;;;;;;;;;;;23.13;29.47;97747.41;4990899;28;1443;-85
2022/07/07 08:03:41;;;;;;;;;;;;;;;22.95;29.56;97741.56;4986435;28;890;-84
2022/07/07 08:06:06;;;;;;;;;;;;;;;23.12;28.96;97740.16;4956321;29;1160;-84
2022/07/07 08:08:32;;;;;;;;;;;;;;;22.94;29.59;97734.31;4955927;29;1993;-84
2022/07/07 08:10:57;;;;;;;;;;;;;;;23.15;29.28;97742.03;4956302;29;1291;-84
2022/07/07 08:13:23;;;;;;;;;;;;;;;23.06;29.30;97736.31;4918272;29;842;-84
2022/07/07 08:15:48;;;;;;;;;;;;;;;23.04;29.35;97739.59;4918124;29;905;-84
2022/07/07 08:18:13;;;;;;;;;;;;;;;23.03;29.35;97737.22;4917854;29;943;-83
2022/07/07 08:20:39;;;;;;;;;;;;;;;23.17;29.20;97742.41;4937065;29;1267;-84
2022/07/07 08:23:05;;;;;;;;;;;;;;;23.04;29.33;97744.50;4936798;29;899;-85
2022/07/07 08:25:30;;;;;;;;;;;;;;;23.12;29.28;97749.44;4896816;29;940;-84
2022/07/07 08:27:55;;;;;;;;;;;;;;;23.02;29.36;97752.69;4895701;29;1911;-84
2022/07/07 08:30:21;;;;;;;;;;;;;;;23.01;29.33;97753.94;4883688;29;1043;-84
2022/07/07 08:32:46;;;;;;;;;;;;;;;23.04;29.61;97753.00;4899043;29;857;-85
2022/07/07 08:35:31;;;;;;;;;;;;;;;23.11;29.48;97750.72;4898926;29;1332;-84
2022/07/07 08:37:57;;;;;;;;;;;;;;;23.11;29.49;97750.72;4883124;29;970;-84
2022/07/07 08:40:22;;;;;;;;;;;;;;;23.07;29.54;97755.72;4880683;29;871;-84
2022/07/07 08:42:48;;;;;;;;;;;;;;;23.01;29.39;97756.78;4868382;29;930;-84
2022/07/07 08:45:13;;;;;;;;;;;;;;;23.26;29.14;97750.16;4852556;29;2210;-84
2022/07/07 08:47:39;;;;;;;;;;;;;;;23.32;29.18;97749.13;4846941;29;1907;-84
2022/07/07 08:50:05;;;;;;;;;;;;;;;23.17;29.26;97748.06;4862671;29;980;-84
2022/07/07 08:52:30;;;;;;;;;;;;;;;23.01;29.53;97751.09;4831401;29;891;-84
2022/07/07 08:54:56;;;;;;;;;;;;;;;23.17;29.08;97748.06;4828406;29;864;-84
2022/07/07 08:57:21;;;;;;;;;;;;;;;23.22;29.45;97756.00;4894059;29;919;-83
2022/07/07 09:02:50;;;;;;;;;;;;;;;23.10;29.62;97748.31;4940298;29;1306;-84
2022/07/07 09:05:15;;;;;;;;;;;;;;;23.08;29.66;97756.50;4949143;29;1121;-84
2022/07/07 09:07:50;;;;;;;;;;;;;;;23.00;29.82;97760.84;4959582;29;1927;-84
2022/07/07 09:10:28;;;;;;;;;;;;;;;22.94;29.81;97751.34;4959503;29;882;-84
2022/07/07 09:12:54;;;;;;;;;;;;;;;23.07;29.78;97754.94;4959400;29;835;-83
2022/07/07 09:15:19;;;;;;;;;;;;;;;23.03;29.78;97763.56;4961466;28;877;-84
2022/07/07 09:17:45;;;;;;;;;;;;;;;23.20;29.60;97755.63;4962201;28;925;-84
2022/07/07 09:20:12;;;;;;;;;;;;;;;23.16;29.50;97759.88;4943003;29;947;-84
2022/07/07 09:23:03;;;;;;;;;;;;;;;23.29;29.29;97761.38;4909036;29;1192;-84
2022/07/07 09:25:28;;;;;;;;;;;;;;;23.21;29.58;97762.94;4883169;29;947;-84
2022/07/07 09:27:55;;;;;;;;;;;;;;;23.31;29.44;97761.75;4889170;29;1915;-82
2022/07/07 09:30:27;;;;;;;;;;;;;;;23.21;29.41;97760.09;4886049;29;1015;-82
2022/07/07 09:32:53;;;;;;;;;;;;;;;23.11;29.89;97766.94;4885591;29;1044;-84
2022/07/07 09:38:15;;;;;;;;;;;;;;;23.17;29.63;97759.41;4901020;29;1000;-84
2022/07/07 09:40:50;;;;;;;;;;;;;;;22.97;29.57;97754.06;4901481;29;938;-83
2022/07/07 09:43:16;;;;;;;;;;;;;;;22.95;29.84;97758.59;4900869;29;903;-84
2022/07/07 09:45:41;;;;;;;;;;;;;;;23.09;29.50;97761.72;4905778;29;977;-83
2022/07/07 09:48:07;;;;;;;;;;;;;;;23.08;29.49;97757.28;4900769;29;1884;-83
2022/07/07 09:50:33;;;;;;;;;;;;;;;23.14;29.77;97760.34;4905445;29;1076;-83
2022/07/07 09:52:58;;;;;;;;;;;;;;;23.24;29.53;97747.78;4923368;29;941;-82
2022/07/07 09:55:24;;;;;;;;;;;;;;;23.16;29.61;97755.00;4922908;29;1370;-83
2022/07/07 09:57:49;;;;;;;;;;;;;;;23.09;29.67;97758.09;4900642;29;930;-83
2022/07/07 10:00:15;;;;;;;;;;;;;;;23.18;29.74;97755.31;4900901;29;976;-83
2022/07/07 10:02:42;;;;;;;;;;;;;;;23.06;29.80;97754.13;4925781;29;963;-82
2022/07/07 10:05:07;;;;;;;;;;;;;;;23.13;29.65;97764.44;4919717;29;1107;-83
2022/07/07 10:07:34;;;;;;;;;;;;;;;23.13;29.77;97753.06;4919551;29;1918;-83
2022/07/07 10:10:02;;;;;;;;;;;;;;;23.18;29.74;97743.19;4938036;29;917;-82
2022/07/07 10:12:28;;;;;;;;;;;;;;;23.23;29.96;97746.22;4938768;29;978;-82
2022/07/07 10:14:54;;;;;;;;;;;;;;;23.30;29.61;97751.63;4938448;29;958;-83
2022/07/07 10:17:20;;;;;;;;;;;;;;;23.21;29.79;97748.72;4938706;29;2291;-82
2022/07/07 10:19:46;;;;;;;;;;;;;;;23.23;29.88;97745.44;4938525;29;999;-83
2022/07/07 10:22:12;;;;;;;;;;;;;;;23.07;30.37;97749.25;4938237;29;918;-83
2022/07/07 10:24:38;;;;;;;;;;;;;;;23.07;30.72;97743.56;4954517;29;1109;-83
2022/07/07 10:27:04;;;;;;;;;;;;;;;22.97;30.58;97744.75;4957268;28;1003;-82
2022/07/07 10:29:42;;;;;;;;;;;;;;;23.20;30.38;97749.19;4941196;29;953;-82
2022/07/07 10:32:09;;;;;;;;;;;;;;;23.18;30.43;97749.66;4991180;28;919;-82
2022/07/07 10:34:35;;;;;;;;;;;;;;;23.31;30.33;97736.19;4995898;28;891;-82
2022/07/07 10:37:01;;;;;;;;;;;;;;;23.43;30.40;97747.94;5013428;28;970;-83
2022/07/07 10:39:27;;;;;;;;;;;;;;;23.21;30.71;97748.72;5031926;28;860;-83
2022/07/07 10:41:54;;;;;;;;;;;;;;;23.24;30.42;97747.78;5035430;28;906;-84
2022/07/07 10:44:20;;;;;;;;;;;;;;;23.29;30.46;97740.72;5018827;28;1197;-84
2022/07/07 10:46:58;;;;;;;;;;;;;;;23.17;30.88;97742.41;5035230;28;1258;-82
2022/07/07 10:49:35;;;;;;;;;;;;;;;23.26;30.76;97742.47;4995662;28;1906;-83
2022/07/07 10:52:01;;;;;;;;;;;;;;;23.29;30.92;97741.53;4996002;28;934;-83
2022/07/07 10:54:36;;;;;;;;;;;;;;;23.33;30.96;97742.19;4993056;28;983;-83
2022/07/07 10:57:01;;;;;;;;;;;;;;;23.24;30.76;97736.44;4997479;28;919;-83
2022/07/07 10:59:27;;;;;;;;;;;;;;;23.31;30.77;97741.88;5015604;28;955;-81
2022/07/07 11:02:01;;;;;;;;;;;;;;;23.33;30.80;97744.22;5015496;28;890;-84
2022/07/07 11:04:41;;;;;;;;;;;;;;;23.18;31.03;97741.13;5014278;28;881;-83
2022/07/07 11:07:14;;;;;;;;;;;;;;;23.10;31.26;97734.13;5015123;28;2013;-83
2022/07/07 11:09:58;;;;;;;;;;;;;;;23.15;31.25;97727.84;5015163;28;894;-83
2022/07/07 11:12:42;;;;;;;;;;;;;;;23.29;30.96;97743.56;5008855;28;864;-83
2022/07/07 11:15:22;;;;;;;;;;;;;;;23.37;31.02;97739.22;4995459;28;910;-83
2022/07/07 11:17:56;;;;;;;;;;;;;;;23.20;31.41;97743.50;4995307;28;877;-83
2022/07/07 11:20:25;;;;;;;;;;;;;;;23.30;31.01;97728.91;5006223;28;950;-83
2022/07/07 11:22:56;;;;;;;;;;;;;;;23.17;31.29;97730.25;5074223;28;979;-82
2022/07/07 11:25:22;;;;;;;;;;;;;;;23.36;30.76;97738.44;5071731;28;939;-83
2022/07/07 11:27:48;;;;;;;;;;;;;;;23.25;31.24;97743.69;5074483;28;1981;-83
2022/07/07 11:30:14;;;;;;;;;;;;;;;23.24;31.22;97747.78;5054145;28;982;-83
2022/07/07 11:32:41;;;;;;;;;;;;;;;23.06;31.33;97744.84;5055044;28;851;-83
2022/07/07 11:35:10;;;;;;;;;;;;;;;23.23;31.23;97751.91;5014748;28;942;-83
2022/07/07 11:37:39;;;;;;;;;;;;;;;23.49;30.56;97737.53;5014763;28;894;-83
2022/07/07 11:40:13;;;;;;;;;;;;;;;23.22;31.00;97733.28;5014470;28;969;-83
2022/07/07 11:42:39;;;;;;;;;;;;;;;23.28;30.77;97731.44;5014421;28;970;-83
2022/07/07 11:45:05;;;;;;;;;;;;;;;23.19;30.89;97728.50;4994661;28;935;-83
2022/07/07 11:47:34;;;;;;;;;;;;;;;23.13;31.10;97736.03;4955591;29;1971;-83
2022/07/07 11:49:59;;;;;;;;;;;;;;;23.14;30.97;97726.28;4955883;29;923;-83
2022/07/07 11:52:25;;;;;;;;;;;;;;;23.38;30.48;97724.56;4955852;29;920;-83
2022/07/07 11:54:50;;;;;;;;;;;;;;;23.17;31.03;97727.41;4904318;29;998;-83
2022/07/07 11:57:48;;;;;;;;;;;;;;;23.03;30.98;97725.88;4899208;29;914;-83
2022/07/07 12:00:14;;;;;;;;;;;;;;;23.19;30.88;97717.16;4938178;29;1011;-84
2022/07/07 12:02:39;;;;;;;;;;;;;;;23.35;30.22;97724.69;4955541;28;925;-83
2022/07/07 12:05:06;;;;;;;;;;;;;;;23.34;30.30;97712.53;4957772;28;1023;-82
2022/07/07 12:07:31;;;;;;;;;;;;;;;23.37;30.22;97722.97;4975228;28;1910;-83
2022/07/07 12:09:56;;;;;;;;;;;;;;;23.29;30.35;97715.97;4975418;28;965;-83
2022/07/07 12:12:22;;;;;;;;;;;;;;;23.27;30.56;97715.66;4975667;28;897;-83
2022/07/07 12:14:47;;;;;;;;;;;;;;;23.32;30.62;97708.59;4975189;28;953;-83
2022/07/07 12:17:13;;;;;;;;;;;;;;;23.39;30.41;97713.97;4997696;28;987;-84
2022/07/07 12:19:47;;;;;;;;;;;;;;;23.32;30.43;97709.38;4998948;28;1013;-83
2022/07/07 12:22:13;;;;;;;;;;;;;;;23.36;30.43;97703.53;4982658;28;924;-82
2022/07/07 12:24:38;;;;;;;;;;;;;;;22.95;31.14;97697.00;4979474;28;944;-82
2022/07/07 12:27:04;;;;;;;;;;;;;;;23.27;30.79;97712.03;4959766;29;989;-83
2022/07/07 12:29:29;;;;;;;;;;;;;;;23.34;30.55;97715.38;4957243;29;1911;-83
2022/07/07 12:31:55;;;;;;;;;;;;;;;23.19;31.01;97705.03;4959589;29;916;-83
2022/07/07 12:34:22;;;;;;;;;;;;;;;23.43;30.26;97713.84;4959918;29;912;-83
2022/07/07 12:36:47;;;;;;;;;;;;;;;23.32;30.37;97702.91;4959666;28;915;-83
2022/07/07 12:39:14;;;;;;;;;;;;;;;23.51;30.06;97698.09;4981399;28;910;-83
2022/07/07 12:41:40;;;;;;;;;;;;;;;23.37;30.47;97708.78;4978515;28;973;-84
2022/07/07 12:44:19;;;;;;;;;;;;;;;23.32;30.56;97726.41;4959053;29;926;-83
2022/07/07 12:46:44;;;;;;;;;;;;;;;22.92;30.86;97714.94;4959192;29;1212;-83
2022/07/07 12:49:10;;;;;;;;;;;;;;;23.27;30.39;97712.03;4959339;29;1981;-82
2022/07/07 12:51:37;;;;;;;;;;;;;;;22.95;31.10;97719.69;4939554;29;913;-83
2022/07/07 12:54:03;;;;;;;;;;;;;;;23.16;30.63;97717.28;4939894;29;916;-83
2022/07/07 12:56:46;;;;;;;;;;;;;;;23.23;30.55;97728.41;4939745;29;881;-82
2022/07/07 12:59:19;;;;;;;;;;;;;;;23.20;30.61;97724.41;4958661;29;1016;-83
2022/07/07 13:01:51;;;;;;;;;;;;;;;23.25;30.53;97723.03;4939519;29;928;-84
2022/07/07 13:04:17;;;;;;;;;;;;;;;23.18;30.38;97732.63;4932277;29;1137;-82
2022/07/07 13:06:43;;;;;;;;;;;;;;;23.36;30.32;97723.41;4936636;29;1098;-83
2022/07/07 13:09:09;;;;;;;;;;;;;;;23.27;30.13;97718.50;4919078;29;1984;-83
2022/07/07 13:11:34;;;;;;;;;;;;;;;23.33;30.26;97722.31;4902044;29;926;-82
2022/07/07 13:14:00;;;;;;;;;;;;;;;23.11;30.48;97719.50;4901923;29;921;-82
2022/07/07 13:16:25;;;;;;;;;;;;;;;23.04;30.39;97716.91;4901384;29;894;-82
2022/07/07 13:18:51;;;;;;;;;;;;;;;23.17;30.62;97694.16;4917375;29;1152;-83
2022/07/07 13:21:17;;;;;;;;;;;;;;;23.10;30.62;97705.75;4898373;29;980;-82
2022/07/07 13:23:42;;;;;;;;;;;;;;;23.31;30.29;97710.63;4920148;29;885;-83
2022/07/07 13:26:08;;;;;;;;;;;;;;;23.04;30.57;97710.44;4920277;29;990;-83
2022/07/07 13:28:33;;;;;;;;;;;;;;;23.07;30.72;97692.50;4919285;29;1986;-83
2022/07/07 13:30:59;;;;;;;;;;;;;;;23.23;30.50;97700.81;4935707;29;996;-83
2022/07/07 13:33:25;;;;;;;;;;;;;;;23.19;30.68;97700.13;4986076;28;894;-82
2022/07/07 13:35:50;;;;;;;;;;;;;;;23.32;30.29;97697.22;5001712;28;877;-82
2022/07/07 13:38:16;;;;;;;;;;;;;;;23.31;30.23;97701.31;5017217;28;979;-83